Terminal Aerodrome Forecast
Issued by NWS

Home | Current Version | Previous Version | Text Only | Print | Product List | Glossary On
Versions: 1 2 3 4 5 6 7 8 9 10 11 12 13 14 15
157
FTUS43 KOAX 062326
TAFBFF
TAF
KBFF 062326Z 0700/0724 30015G22KT P6SM BKN200
     FM070200 32009KT P6SM SCT050 BKN150
     FM071500 31018G27KT P6SM BKN100
     FM071900 31027G36KT P6SM SCT200=

USA.gov is the U.S. government's official web portal to all federal, state and local government web resources and services.